sensor_id;sensor_type;location;lat;lon;timestamp;temperature;humidity
8676;DHT22;4375;52.486;13.424;2023-04-09T00:01:54;6.50;99.90
8676;DHT22;4375;52.486;13.424;2023-04-09T00:04:20;6.40;99.90
8676;DHT22;4375;52.486;13.424;2023-04-09T00:06:49;6.40;99.90
8676;DHT22;4375;52.486;13.424;2023-04-09T00:09:15;6.40;99.90
8676;DHT22;4375;52.486;13.424;2023-04-09T00:11:41;6.30;99.90
8676;DHT22;4375;52.486;13.424;2023-04-09T00:14:06;6.30;99.90
8676;DHT22;4375;52.486;13.424;2023-04-09T00:16:32;6.30;99.90
8676;DHT22;4375;52.486;13.424;2023-04-09T00:18:58;6.20;99.90
8676;DHT22;4375;52.486;13.424;2023-04-09T00:21:23;6.30;99.90
8676;DHT22;4375;52.486;13.424;2023-04-09T00:23:51;6.20;99.90
8676;DHT22;4375;52.486;13.424;2023-04-09T00:26:17;6.10;99.90
8676;DHT22;4375;52.486;13.424;2023-04-09T00:28:45;6.10;99.90
8676;DHT22;4375;52.486;13.424;2023-04-09T00:31:10;6.20;99.90
8676;DHT22;4375;52.486;13.424;2023-04-09T00:33:36;6.20;99.90
8676;DHT22;4375;52.486;13.424;2023-04-09T00:36:01;6.20;99.90
8676;DHT22;4375;52.486;13.424;2023-04-09T00:38:27;6.10;99.90
8676;DHT22;4375;52.486;13.424;2023-04-09T00:40:53;6.10;99.90
8676;DHT22;4375;52.486;13.424;2023-04-09T00:43:18;6.00;99.90
8676;DHT22;4375;52.486;13.424;2023-04-09T00:45:45;6.00;99.90
8676;DHT22;4375;52.486;13.424;2023-04-09T00:48:12;5.80;99.90
8676;DHT22;4375;52.486;13.424;2023-04-09T00:50:38;5.90;99.90
8676;DHT22;4375;52.486;13.424;2023-04-09T00:53:04;5.80;99.90
8676;DHT22;4375;52.486;13.424;2023-04-09T00:55:30;5.80;99.90
8676;DHT22;4375;52.486;13.424;2023-04-09T00:57:56;5.80;99.90
8676;DHT22;4375;52.486;13.424;2023-04-09T01:00:22;5.90;99.90
8676;DHT22;4375;52.486;13.424;2023-04-09T01:02:48;5.70;99.90
8676;DHT22;4375;52.486;13.424;2023-04-09T01:05:16;5.60;99.90
8676;DHT22;4375;52.486;13.424;2023-04-09T01:13:18;5.50;99.90
8676;DHT22;4375;52.486;13.424;2023-04-09T01:15:56;5.50;99.90
8676;DHT22;4375;52.486;13.424;2023-04-09T01:18:30;5.60;99.90
8676;DHT22;4375;52.486;13.424;2023-04-09T01:21:07;5.60;99.90
8676;DHT22;4375;52.486;13.424;2023-04-09T01:26:20;5.60;99.90
8676;DHT22;4375;52.486;13.424;2023-04-09T01:28:52;5.40;99.90
8676;DHT22;4375;52.486;13.424;2023-04-09T01:31:20;5.40;99.90
8676;DHT22;4375;52.486;13.424;2023-04-09T01:33:50;5.40;99.90
8676;DHT22;4375;52.486;13.424;2023-04-09T01:36:17;5.30;99.90
8676;DHT22;4375;52.486;13.424;2023-04-09T01:38:44;5.30;99.90
8676;DHT22;4375;52.486;13.424;2023-04-09T01:41:14;5.20;99.90
8676;DHT22;4375;52.486;13.424;2023-04-09T01:43:41;5.20;99.90
8676;DHT22;4375;52.486;13.424;2023-04-09T01:46:08;5.30;99.90
8676;DHT22;4375;52.486;13.424;2023-04-09T01:48:35;5.40;99.90
8676;DHT22;4375;52.486;13.424;2023-04-09T01:51:01;5.40;99.90
8676;DHT22;4375;52.486;13.424;2023-04-09T01:53:27;5.30;99.90
8676;DHT22;4375;52.486;13.424;2023-04-09T01:55:58;5.30;99.90
8676;DHT22;4375;52.486;13.424;2023-04-09T01:58:24;5.20;99.90
8676;DHT22;4375;52.486;13.424;2023-04-09T02:00:56;5.20;99.90
8676;DHT22;4375;52.486;13.424;2023-04-09T02:03:27;5.20;99.90
8676;DHT22;4375;52.486;13.424;2023-04-09T02:08:29;5.10;99.90
8676;DHT22;4375;52.486;13.424;2023-04-09T02:10:57;5.10;99.90
8676;DHT22;4375;52.486;13.424;2023-04-09T02:13:25;5.20;99.90
8676;DHT22;4375;52.486;13.424;2023-04-09T02:15:52;5.20;99.90
8676;DHT22;4375;52.486;13.424;2023-04-09T02:18:27;5.10;99.90
8676;DHT22;4375;52.486;13.424;2023-04-09T02:20:54;5.10;99.90
8676;DHT22;4375;52.486;13.424;2023-04-09T02:23:20;5.10;99.90
8676;DHT22;4375;52.486;13.424;2023-04-09T02:25:45;5.00;99.90
8676;DHT22;4375;52.486;13.424;2023-04-09T02:28:11;5.00;99.90
8676;DHT22;4375;52.486;13.424;2023-04-09T02:30:37;5.00;99.90
8676;DHT22;4375;52.486;13.424;2023-04-09T02:33:02;5.00;99.90
8676;DHT22;4375;52.486;13.424;2023-04-09T02:35:28;5.00;99.90
8676;DHT22;4375;52.486;13.424;2023-04-09T02:37:53;5.00;99.90
8676;DHT22;4375;52.486;13.424;2023-04-09T02:40:20;4.90;99.90
8676;DHT22;4375;52.486;13.424;2023-04-09T02:42:45;4.80;99.90
8676;DHT22;4375;52.486;13.424;2023-04-09T02:45:11;4.80;99.90
8676;DHT22;4375;52.486;13.424;2023-04-09T02:47:37;4.70;99.90
8676;DHT22;4375;52.486;13.424;2023-04-09T02:50:03;4.50;99.90
8676;DHT22;4375;52.486;13.424;2023-04-09T02:52:28;4.50;99.90
8676;DHT22;4375;52.486;13.424;2023-04-09T02:54:54;4.60;99.90
8676;DHT22;4375;52.486;13.424;2023-04-09T02:57:20;4.60;99.90
8676;DHT22;4375;52.486;13.424;2023-04-09T02:59:45;4.70;99.90
8676;DHT22;4375;52.486;13.424;2023-04-09T03:02:11;4.70;99.90
8676;DHT22;4375;52.486;13.424;2023-04-09T03:04:37;4.60;99.90
8676;DHT22;4375;52.486;13.424;2023-04-09T03:07:03;4.60;99.90
8676;DHT22;4375;52.486;13.424;2023-04-09T03:09:29;4.60;99.90
8676;DHT22;4375;52.486;13.424;2023-04-09T03:11:56;4.70;99.90
8676;DHT22;4375;52.486;13.424;2023-04-09T03:14:22;4.60;99.90
8676;DHT22;4375;52.486;13.424;2023-04-09T03:16:48;4.60;99.90
8676;DHT22;4375;52.486;13.424;2023-04-09T03:19:14;4.60;99.90
8676;DHT22;4375;52.486;13.424;2023-04-09T03:21:39;4.70;99.90
8676;DHT22;4375;52.486;13.424;2023-04-09T03:24:05;4.70;99.90
8676;DHT22;4375;52.486;13.424;2023-04-09T03:26:31;4.80;99.90
8676;DHT22;4375;52.486;13.424;2023-04-09T03:29:01;4.70;99.90
8676;DHT22;4375;52.486;13.424;2023-04-09T03:31:27;4.80;99.90
8676;DHT22;4375;52.486;13.424;2023-04-09T03:33:52;4.70;99.90
8676;DHT22;4375;52.486;13.424;2023-04-09T03:36:18;4.70;99.90
8676;DHT22;4375;52.486;13.424;2023-04-09T03:38:44;4.80;99.90
8676;DHT22;4375;52.486;13.424;2023-04-09T03:41:09;4.80;99.90
8676;DHT22;4375;52.486;13.424;2023-04-09T03:43:35;4.80;99.90
8676;DHT22;4375;52.486;13.424;2023-04-09T03:46:01;4.90;99.90
8676;DHT22;4375;52.486;13.424;2023-04-09T03:48:26;5.00;99.90
8676;DHT22;4375;52.486;13.424;2023-04-09T03:50:52;5.00;99.90
8676;DHT22;4375;52.486;13.424;2023-04-09T03:53:18;5.00;99.90
8676;DHT22;4375;52.486;13.424;2023-04-09T03:55:43;5.00;99.90
8676;DHT22;4375;52.486;13.424;2023-04-09T03:58:09;4.90;99.90
8676;DHT22;4375;52.486;13.424;2023-04-09T04:00:35;4.90;99.90
8676;DHT22;4375;52.486;13.424;2023-04-09T04:03:01;4.90;99.90
8676;DHT22;4375;52.486;13.424;2023-04-09T04:05:26;5.00;99.90
8676;DHT22;4375;52.486;13.424;2023-04-09T04:07:52;5.00;99.90
8676;DHT22;4375;52.486;13.424;2023-04-09T04:10:18;5.00;99.90
8676;DHT22;4375;52.486;13.424;2023-04-09T04:12:44;5.00;99.90
8676;DHT22;4375;52.486;13.424;2023-04-09T04:15:10;4.90;99.90
8676;DHT22;4375;52.486;13.424;2023-04-09T04:17:35;4.90;99.90
8676;DHT22;4375;52.486;13.424;2023-04-09T04:20:01;4.90;99.90
8676;DHT22;4375;52.486;13.424;2023-04-09T04:22:27;4.80;99.90
8676;DHT22;4375;52.486;13.424;2023-04-09T04:24:52;4.80;99.90
8676;DHT22;4375;52.486;13.424;2023-04-09T04:27:18;4.70;99.90
8676;DHT22;4375;52.486;13.424;2023-04-09T04:29:43;4.70;99.90
8676;DHT22;4375;52.486;13.424;2023-04-09T04:32:09;4.60;99.90
8676;DHT22;4375;52.486;13.424;2023-04-09T04:34:35;4.70;99.90
8676;DHT22;4375;52.486;13.424;2023-04-09T04:37:00;4.60;99.90
8676;DHT22;4375;52.486;13.424;2023-04-09T04:39:26;4.60;99.90
8676;DHT22;4375;52.486;13.424;2023-04-09T04:41:51;4.60;99.90
8676;DHT22;4375;52.486;13.424;2023-04-09T04:44:17;4.50;99.90
8676;DHT22;4375;52.486;13.424;2023-04-09T04:46:42;4.40;99.90
8676;DHT22;4375;52.486;13.424;2023-04-09T04:49:08;4.30;99.90
8676;DHT22;4375;52.486;13.424;2023-04-09T04:51:34;4.20;99.90
8676;DHT22;4375;52.486;13.424;2023-04-09T04:53:59;4.10;99.90
8676;DHT22;4375;52.486;13.424;2023-04-09T04:56:25;4.00;99.90
8676;DHT22;4375;52.486;13.424;2023-04-09T04:58:50;4.00;99.90
8676;DHT22;4375;52.486;13.424;2023-04-09T05:01:16;4.00;99.90
8676;DHT22;4375;52.486;13.424;2023-04-09T05:03:41;4.00;99.90
8676;DHT22;4375;52.486;13.424;2023-04-09T05:06:07;4.10;99.90
8676;DHT22;4375;52.486;13.424;2023-04-09T05:08:33;4.00;99.90
8676;DHT22;4375;52.486;13.424;2023-04-09T05:10:59;4.10;99.90
8676;DHT22;4375;52.486;13.424;2023-04-09T05:13:24;4.20;99.90
8676;DHT22;4375;52.486;13.424;2023-04-09T05:15:50;4.20;99.90
8676;DHT22;4375;52.486;13.424;2023-04-09T05:18:16;4.30;99.90
8676;DHT22;4375;52.486;13.424;2023-04-09T05:20:42;4.30;99.90
8676;DHT22;4375;52.486;13.424;2023-04-09T05:23:07;4.40;99.90
8676;DHT22;4375;52.486;13.424;2023-04-09T05:25:37;4.60;99.90
8676;DHT22;4375;52.486;13.424;2023-04-09T05:28:02;4.70;99.90
8676;DHT22;4375;52.486;13.424;2023-04-09T05:30:28;4.70;99.90
8676;DHT22;4375;52.486;13.424;2023-04-09T05:32:53;4.80;99.90
8676;DHT22;4375;52.486;13.424;2023-04-09T05:35:19;4.70;99.90
8676;DHT22;4375;52.486;13.424;2023-04-09T05:37:45;4.80;99.90
8676;DHT22;4375;52.486;13.424;2023-04-09T05:40:11;4.90;99.90
8676;DHT22;4375;52.486;13.424;2023-04-09T05:42:37;4.90;99.90
8676;DHT22;4375;52.486;13.424;2023-04-09T05:45:03;4.90;99.90
8676;DHT22;4375;52.486;13.424;2023-04-09T05:47:28;5.00;99.90
8676;DHT22;4375;52.486;13.424;2023-04-09T05:49:54;5.00;99.90
8676;DHT22;4375;52.486;13.424;2023-04-09T05:52:20;5.00;99.90
8676;DHT22;4375;52.486;13.424;2023-04-09T05:54:46;5.20;99.90
8676;DHT22;4375;52.486;13.424;2023-04-09T05:57:11;5.20;99.90
8676;DHT22;4375;52.486;13.424;2023-04-09T05:59:37;5.20;99.90
8676;DHT22;4375;52.486;13.424;2023-04-09T06:02:03;5.30;99.90
8676;DHT22;4375;52.486;13.424;2023-04-09T06:04:29;5.50;99.90
8676;DHT22;4375;52.486;13.424;2023-04-09T06:06:54;5.40;99.90
8676;DHT22;4375;52.486;13.424;2023-04-09T06:09:24;5.50;99.90
8676;DHT22;4375;52.486;13.424;2023-04-09T06:11:50;5.70;99.90
8676;DHT22;4375;52.486;13.424;2023-04-09T06:14:16;5.70;99.90
8676;DHT22;4375;52.486;13.424;2023-04-09T06:16:42;5.70;99.90
8676;DHT22;4375;52.486;13.424;2023-04-09T06:19:08;5.70;99.90
8676;DHT22;4375;52.486;13.424;2023-04-09T06:21:33;5.90;99.90
8676;DHT22;4375;52.486;13.424;2023-04-09T06:23:59;6.10;99.90
8676;DHT22;4375;52.486;13.424;2023-04-09T06:26:25;6.00;99.90
8676;DHT22;4375;52.486;13.424;2023-04-09T06:28:50;6.10;99.90
8676;DHT22;4375;52.486;13.424;2023-04-09T06:31:16;6.10;99.90
8676;DHT22;4375;52.486;13.424;2023-04-09T06:33:42;6.20;99.90
8676;DHT22;4375;52.486;13.424;2023-04-09T06:36:07;6.30;99.90
8676;DHT22;4375;52.486;13.424;2023-04-09T06:38:33;6.30;99.90
8676;DHT22;4375;52.486;13.424;2023-04-09T06:40:59;6.40;99.90
8676;DHT22;4375;52.486;13.424;2023-04-09T06:43:24;6.50;99.90
8676;DHT22;4375;52.486;13.424;2023-04-09T06:45:50;6.50;99.90
8676;DHT22;4375;52.486;13.424;2023-04-09T06:48:15;6.60;99.90
8676;DHT22;4375;52.486;13.424;2023-04-09T06:50:41;6.80;99.90
8676;DHT22;4375;52.486;13.424;2023-04-09T06:53:07;6.90;99.90
8676;DHT22;4375;52.486;13.424;2023-04-09T06:55:32;7.10;99.90
8676;DHT22;4375;52.486;13.424;2023-04-09T06:57:58;7.10;99.90
8676;DHT22;4375;52.486;13.424;2023-04-09T07:00:24;7.10;99.90
8676;DHT22;4375;52.486;13.424;2023-04-09T07:02:49;7.40;99.90
8676;DHT22;4375;52.486;13.424;2023-04-09T07:05:15;7.60;99.90
8676;DHT22;4375;52.486;13.424;2023-04-09T07:07:41;7.50;99.90
8676;DHT22;4375;52.486;13.424;2023-04-09T07:10:07;7.40;99.90
8676;DHT22;4375;52.486;13.424;2023-04-09T07:12:33;7.70;99.90
8676;DHT22;4375;52.486;13.424;2023-04-09T07:15:04;7.80;99.90
8676;DHT22;4375;52.486;13.424;2023-04-09T07:17:30;7.80;99.90
8676;DHT22;4375;52.486;13.424;2023-04-09T07:19:56;8.00;99.90
8676;DHT22;4375;52.486;13.424;2023-04-09T07:22:22;7.90;99.90
8676;DHT22;4375;52.486;13.424;2023-04-09T07:24:48;8.00;99.90
8676;DHT22;4375;52.486;13.424;2023-04-09T07:27:25;8.00;99.90
8676;DHT22;4375;52.486;13.424;2023-04-09T07:29:54;8.00;99.90
8676;DHT22;4375;52.486;13.424;2023-04-09T07:32:20;8.10;99.90
8676;DHT22;4375;52.486;13.424;2023-04-09T07:34:46;8.00;99.90
8676;DHT22;4375;52.486;13.424;2023-04-09T07:37:12;8.20;99.90
8676;DHT22;4375;52.486;13.424;2023-04-09T07:39:37;7.80;99.90
8676;DHT22;4375;52.486;13.424;2023-04-09T07:42:04;7.90;99.90
8676;DHT22;4375;52.486;13.424;2023-04-09T07:44:33;7.90;99.90
8676;DHT22;4375;52.486;13.424;2023-04-09T07:46:59;8.40;99.90
8676;DHT22;4375;52.486;13.424;2023-04-09T07:49:25;8.70;99.90
8676;DHT22;4375;52.486;13.424;2023-04-09T07:51:51;8.80;99.90
8676;DHT22;4375;52.486;13.424;2023-04-09T07:54:16;9.20;99.90
8676;DHT22;4375;52.486;13.424;2023-04-09T07:56:42;9.10;99.90
8676;DHT22;4375;52.486;13.424;2023-04-09T07:59:07;9.00;99.90
8676;DHT22;4375;52.486;13.424;2023-04-09T08:01:34;9.50;99.90
8676;DHT22;4375;52.486;13.424;2023-04-09T08:04:00;9.50;99.90
8676;DHT22;4375;52.486;13.424;2023-04-09T08:06:26;9.70;99.90
8676;DHT22;4375;52.486;13.424;2023-04-09T08:08:52;10.20;99.90
8676;DHT22;4375;52.486;13.424;2023-04-09T08:11:18;11.50;99.90
8676;DHT22;4375;52.486;13.424;2023-04-09T08:13:50;12.50;99.90
8676;DHT22;4375;52.486;13.424;2023-04-09T08:16:16;13.00;99.90
8676;DHT22;4375;52.486;13.424;2023-04-09T08:18:41;12.50;99.90
8676;DHT22;4375;52.486;13.424;2023-04-09T08:21:07;12.20;99.90
8676;DHT22;4375;52.486;13.424;2023-04-09T08:23:33;12.50;99.90
8676;DHT22;4375;52.486;13.424;2023-04-09T08:25:58;12.80;99.90
8676;DHT22;4375;52.486;13.424;2023-04-09T08:28:24;12.80;99.90
8676;DHT22;4375;52.486;13.424;2023-04-09T08:30:49;13.50;99.90
8676;DHT22;4375;52.486;13.424;2023-04-09T08:33:16;13.90;99.90
8676;DHT22;4375;52.486;13.424;2023-04-09T08:35:42;13.40;99.90
8676;DHT22;4375;52.486;13.424;2023-04-09T08:38:07;13.70;99.90
8676;DHT22;4375;52.486;13.424;2023-04-09T08:40:34;14.30;99.90
8676;DHT22;4375;52.486;13.424;2023-04-09T08:43:04;14.00;99.90
8676;DHT22;4375;52.486;13.424;2023-04-09T08:45:30;13.40;99.90
8676;DHT22;4375;52.486;13.424;2023-04-09T08:47:55;12.90;99.90
8676;DHT22;4375;52.486;13.424;2023-04-09T08:50:24;12.60;99.90
8676;DHT22;4375;52.486;13.424;2023-04-09T08:52:50;13.50;99.90
8676;DHT22;4375;52.486;13.424;2023-04-09T08:55:16;13.70;99.90
8676;DHT22;4375;52.486;13.424;2023-04-09T08:57:42;14.20;99.90
8676;DHT22;4375;52.486;13.424;2023-04-09T09:00:08;14.30;99.90
8676;DHT22;4375;52.486;13.424;2023-04-09T09:02:34;13.40;99.90
8676;DHT22;4375;52.486;13.424;2023-04-09T09:05:00;13.80;99.90
8676;DHT22;4375;52.486;13.424;2023-04-09T09:07:29;14.40;99.90
8676;DHT22;4375;52.486;13.424;2023-04-09T09:09:59;14.60;99.90
8676;DHT22;4375;52.486;13.424;2023-04-09T09:12:40;14.30;99.90
8676;DHT22;4375;52.486;13.424;2023-04-09T09:15:25;14.30;99.90
8676;DHT22;4375;52.486;13.424;2023-04-09T09:17:56;14.60;99.90
8676;DHT22;4375;52.486;13.424;2023-04-09T09:20:22;14.90;99.90
8676;DHT22;4375;52.486;13.424;2023-04-09T09:22:49;14.20;99.90
8676;DHT22;4375;52.486;13.424;2023-04-09T09:25:15;13.60;99.90
8676;DHT22;4375;52.486;13.424;2023-04-09T09:27:41;13.70;99.90
8676;DHT22;4375;52.486;13.424;2023-04-09T09:30:08;13.40;99.90
8676;DHT22;4375;52.486;13.424;2023-04-09T09:32:35;13.40;99.90
8676;DHT22;4375;52.486;13.424;2023-04-09T09:35:05;13.10;99.90
8676;DHT22;4375;52.486;13.424;2023-04-09T09:37:32;12.20;99.90
8676;DHT22;4375;52.486;13.424;2023-04-09T09:39:59;11.80;99.90
8676;DHT22;4375;52.486;13.424;2023-04-09T09:42:25;12.20;99.90
8676;DHT22;4375;52.486;13.424;2023-04-09T09:44:52;11.60;99.90
8676;DHT22;4375;52.486;13.424;2023-04-09T09:47:19;11.80;99.90
8676;DHT22;4375;52.486;13.424;2023-04-09T09:49:47;12.10;99.90
8676;DHT22;4375;52.486;13.424;2023-04-09T09:52:15;11.70;99.90
8676;DHT22;4375;52.486;13.424;2023-04-09T09:54:42;11.60;99.90
8676;DHT22;4375;52.486;13.424;2023-04-09T09:57:11;11.50;99.90
8676;DHT22;4375;52.486;13.424;2023-04-09T09:59:49;11.60;99.90
8676;DHT22;4375;52.486;13.424;2023-04-09T10:02:22;11.40;99.90
8676;DHT22;4375;52.486;13.424;2023-04-09T10:04:49;11.20;99.90
8676;DHT22;4375;52.486;13.424;2023-04-09T10:07:19;11.60;99.90
8676;DHT22;4375;52.486;13.424;2023-04-09T10:09:48;11.50;99.90
8676;DHT22;4375;52.486;13.424;2023-04-09T10:12:15;11.70;99.90
8676;DHT22;4375;52.486;13.424;2023-04-09T10:14:41;11.70;99.90
8676;DHT22;4375;52.486;13.424;2023-04-09T10:17:08;11.70;99.90
8676;DHT22;4375;52.486;13.424;2023-04-09T10:19:41;11.60;99.90
8676;DHT22;4375;52.486;13.424;2023-04-09T10:22:15;11.80;99.90
8676;DHT22;4375;52.486;13.424;2023-04-09T10:24:42;11.60;99.90
8676;DHT22;4375;52.486;13.424;2023-04-09T10:27:09;10.70;99.90
8676;DHT22;4375;52.486;13.424;2023-04-09T10:29:45;10.60;99.90
8676;DHT22;4375;52.486;13.424;2023-04-09T10:32:11;10.60;99.90
8676;DHT22;4375;52.486;13.424;2023-04-09T10:34:41;10.50;99.90
8676;DHT22;4375;52.486;13.424;2023-04-09T10:37:16;10.40;99.90
8676;DHT22;4375;52.486;13.424;2023-04-09T10:39:46;10.70;99.90
8676;DHT22;4375;52.486;13.424;2023-04-09T10:42:23;10.50;99.90
8676;DHT22;4375;52.486;13.424;2023-04-09T10:47:34;10.60;99.90
8676;DHT22;4375;52.486;13.424;2023-04-09T10:50:24;10.50;99.90
8676;DHT22;4375;52.486;13.424;2023-04-09T10:52:53;10.30;99.90
8676;DHT22;4375;52.486;13.424;2023-04-09T10:55:35;10.30;99.90
8676;DHT22;4375;52.486;13.424;2023-04-09T10:58:08;10.40;99.90
8676;DHT22;4375;52.486;13.424;2023-04-09T11:00:42;10.20;99.90
8676;DHT22;4375;52.486;13.424;2023-04-09T11:05:35;10.20;99.90
8676;DHT22;4375;52.486;13.424;2023-04-09T11:08:10;10.10;99.90
8676;DHT22;4375;52.486;13.424;2023-04-09T11:10:38;10.20;99.90
8676;DHT22;4375;52.486;13.424;2023-04-09T11:13:04;10.50;99.90
8676;DHT22;4375;52.486;13.424;2023-04-09T11:15:31;10.60;99.90
8676;DHT22;4375;52.486;13.424;2023-04-09T11:17:58;10.40;99.90
8676;DHT22;4375;52.486;13.424;2023-04-09T11:20:25;10.30;99.90
8676;DHT22;4375;52.486;13.424;2023-04-09T11:22:52;10.30;99.90
8676;DHT22;4375;52.486;13.424;2023-04-09T11:25:23;10.50;99.90
8676;DHT22;4375;52.486;13.424;2023-04-09T11:27:49;10.40;99.90
8676;DHT22;4375;52.486;13.424;2023-04-09T11:30:15;10.10;99.90
8676;DHT22;4375;52.486;13.424;2023-04-09T11:32:41;10.50;99.90
8676;DHT22;4375;52.486;13.424;2023-04-09T11:35:14;10.70;99.90
8676;DHT22;4375;52.486;13.424;2023-04-09T11:37:41;10.90;99.90
8676;DHT22;4375;52.486;13.424;2023-04-09T11:40:17;11.00;99.90
8676;DHT22;4375;52.486;13.424;2023-04-09T11:42:44;11.10;99.90
8676;DHT22;4375;52.486;13.424;2023-04-09T11:45:10;11.20;99.90
8676;DHT22;4375;52.486;13.424;2023-04-09T11:47:38;10.80;99.90
8676;DHT22;4375;52.486;13.424;2023-04-09T11:50:06;10.90;99.90
8676;DHT22;4375;52.486;13.424;2023-04-09T11:52:32;10.70;99.90
8676;DHT22;4375;52.486;13.424;2023-04-09T11:55:03;11.00;99.90
8676;DHT22;4375;52.486;13.424;2023-04-09T11:57:39;11.10;99.90
8676;DHT22;4375;52.486;13.424;2023-04-09T12:00:11;11.10;99.90
8676;DHT22;4375;52.486;13.424;2023-04-09T12:02:39;11.20;99.90
8676;DHT22;4375;52.486;13.424;2023-04-09T12:05:08;11.20;99.90
8676;DHT22;4375;52.486;13.424;2023-04-09T12:07:33;11.50;99.90
8676;DHT22;4375;52.486;13.424;2023-04-09T12:10:06;11.20;99.90
8676;DHT22;4375;52.486;13.424;2023-04-09T12:12:41;10.90;99.90
8676;DHT22;4375;52.486;13.424;2023-04-09T12:15:25;10.80;99.90
8676;DHT22;4375;52.486;13.424;2023-04-09T12:17:54;10.90;99.90
8676;DHT22;4375;52.486;13.424;2023-04-09T12:20:27;10.90;99.90
8676;DHT22;4375;52.486;13.424;2023-04-09T12:22:53;11.00;99.90
8676;DHT22;4375;52.486;13.424;2023-04-09T12:25:19;11.10;99.90
8676;DHT22;4375;52.486;13.424;2023-04-09T12:27:44;11.10;99.90
8676;DHT22;4375;52.486;13.424;2023-04-09T12:30:11;11.20;99.90
8676;DHT22;4375;52.486;13.424;2023-04-09T12:32:36;11.30;99.90
8676;DHT22;4375;52.486;13.424;2023-04-09T12:35:03;11.30;99.90
8676;DHT22;4375;52.486;13.424;2023-04-09T12:37:29;11.30;99.90
8676;DHT22;4375;52.486;13.424;2023-04-09T12:39:54;11.20;99.90
8676;DHT22;4375;52.486;13.424;2023-04-09T12:42:20;11.30;99.90
8676;DHT22;4375;52.486;13.424;2023-04-09T12:44:46;11.30;99.90
8676;DHT22;4375;52.486;13.424;2023-04-09T12:47:11;11.10;99.90
8676;DHT22;4375;52.486;13.424;2023-04-09T12:49:37;11.20;99.90
8676;DHT22;4375;52.486;13.424;2023-04-09T12:52:03;11.30;99.90
8676;DHT22;4375;52.486;13.424;2023-04-09T12:54:29;11.40;99.90
8676;DHT22;4375;52.486;13.424;2023-04-09T12:56:55;11.40;99.90
8676;DHT22;4375;52.486;13.424;2023-04-09T12:59:20;11.50;99.90
8676;DHT22;4375;52.486;13.424;2023-04-09T13:01:46;11.50;99.90
8676;DHT22;4375;52.486;13.424;2023-04-09T13:04:12;11.40;99.90
8676;DHT22;4375;52.486;13.424;2023-04-09T13:06:37;11.50;99.90
8676;DHT22;4375;52.486;13.424;2023-04-09T13:09:03;11.60;99.90
8676;DHT22;4375;52.486;13.424;2023-04-09T13:11:28;11.60;99.90
8676;DHT22;4375;52.486;13.424;2023-04-09T13:13:54;11.80;99.90
8676;DHT22;4375;52.486;13.424;2023-04-09T13:16:20;12.00;99.90
8676;DHT22;4375;52.486;13.424;2023-04-09T13:18:46;12.10;99.90
8676;DHT22;4375;52.486;13.424;2023-04-09T13:21:11;12.00;99.90
8676;DHT22;4375;52.486;13.424;2023-04-09T13:23:39;12.00;99.90
8676;DHT22;4375;52.486;13.424;2023-04-09T13:26:05;12.00;99.90
8676;DHT22;4375;52.486;13.424;2023-04-09T13:28:31;12.10;99.90
8676;DHT22;4375;52.486;13.424;2023-04-09T13:30:56;12.20;99.90
8676;DHT22;4375;52.486;13.424;2023-04-09T13:33:22;12.40;99.90
8676;DHT22;4375;52.486;13.424;2023-04-09T13:35:48;12.40;99.90
8676;DHT22;4375;52.486;13.424;2023-04-09T13:38:15;12.40;99.90
8676;DHT22;4375;52.486;13.424;2023-04-09T13:40:41;12.50;99.90
8676;DHT22;4375;52.486;13.424;2023-04-09T13:43:06;12.20;99.90
8676;DHT22;4375;52.486;13.424;2023-04-09T13:45:32;12.40;99.90
8676;DHT22;4375;52.486;13.424;2023-04-09T13:47:57;12.20;99.90
8676;DHT22;4375;52.486;13.424;2023-04-09T13:50:23;12.50;99.90
8676;DHT22;4375;52.486;13.424;2023-04-09T13:52:48;12.40;99.90
8676;DHT22;4375;52.486;13.424;2023-04-09T13:55:14;12.30;99.90
8676;DHT22;4375;52.486;13.424;2023-04-09T13:57:40;12.30;99.90
8676;DHT22;4375;52.486;13.424;2023-04-09T14:00:06;12.30;99.90
8676;DHT22;4375;52.486;13.424;2023-04-09T14:02:32;12.30;99.90
8676;DHT22;4375;52.486;13.424;2023-04-09T14:04:58;12.40;99.90
8676;DHT22;4375;52.486;13.424;2023-04-09T14:07:24;12.20;99.90
8676;DHT22;4375;52.486;13.424;2023-04-09T14:09:49;12.30;99.90
8676;DHT22;4375;52.486;13.424;2023-04-09T14:12:16;12.40;99.90
8676;DHT22;4375;52.486;13.424;2023-04-09T14:14:41;12.60;99.90
8676;DHT22;4375;52.486;13.424;2023-04-09T14:17:07;12.70;99.90
8676;DHT22;4375;52.486;13.424;2023-04-09T14:19:33;12.70;99.90
8676;DHT22;4375;52.486;13.424;2023-04-09T14:21:58;12.50;99.90
8676;DHT22;4375;52.486;13.424;2023-04-09T14:24:24;12.50;99.90
8676;DHT22;4375;52.486;13.424;2023-04-09T14:26:50;12.60;99.90
8676;DHT22;4375;52.486;13.424;2023-04-09T14:29:17;12.50;99.90
8676;DHT22;4375;52.486;13.424;2023-04-09T14:31:43;12.50;99.90
8676;DHT22;4375;52.486;13.424;2023-04-09T14:34:11;12.50;99.90
8676;DHT22;4375;52.486;13.424;2023-04-09T14:36:36;12.50;99.90
8676;DHT22;4375;52.486;13.424;2023-04-09T14:39:02;12.60;99.90
8676;DHT22;4375;52.486;13.424;2023-04-09T14:41:28;12.60;99.90
8676;DHT22;4375;52.486;13.424;2023-04-09T14:43:53;12.80;99.90
8676;DHT22;4375;52.486;13.424;2023-04-09T14:46:19;12.90;99.90
8676;DHT22;4375;52.486;13.424;2023-04-09T14:48:46;13.10;99.90
8676;DHT22;4375;52.486;13.424;2023-04-09T14:51:11;13.30;99.90
8676;DHT22;4375;52.486;13.424;2023-04-09T14:53:37;13.60;99.90
8676;DHT22;4375;52.486;13.424;2023-04-09T14:56:03;13.80;99.90
8676;DHT22;4375;52.486;13.424;2023-04-09T14:58:29;13.40;99.90
8676;DHT22;4375;52.486;13.424;2023-04-09T15:00:54;13.10;99.90
8676;DHT22;4375;52.486;13.424;2023-04-09T15:03:21;13.00;99.90
8676;DHT22;4375;52.486;13.424;2023-04-09T15:05:47;12.90;99.90
8676;DHT22;4375;52.486;13.424;2023-04-09T15:08:12;12.60;99.90
8676;DHT22;4375;52.486;13.424;2023-04-09T15:10:38;12.60;99.90
8676;DHT22;4375;52.486;13.424;2023-04-09T15:13:03;12.70;99.90
8676;DHT22;4375;52.486;13.424;2023-04-09T15:15:29;12.50;99.90
8676;DHT22;4375;52.486;13.424;2023-04-09T15:17:55;12.50;99.90
8676;DHT22;4375;52.486;13.424;2023-04-09T15:20:21;12.60;99.90
8676;DHT22;4375;52.486;13.424;2023-04-09T15:22:47;12.60;99.90
8676;DHT22;4375;52.486;13.424;2023-04-09T15:25:12;12.50;99.90
8676;DHT22;4375;52.486;13.424;2023-04-09T15:27:38;12.40;99.90
8676;DHT22;4375;52.486;13.424;2023-04-09T15:30:04;12.50;99.90
8676;DHT22;4375;52.486;13.424;2023-04-09T15:32:30;12.40;99.90
8676;DHT22;4375;52.486;13.424;2023-04-09T15:34:57;12.40;99.90
8676;DHT22;4375;52.486;13.424;2023-04-09T15:37:23;12.30;99.90
8676;DHT22;4375;52.486;13.424;2023-04-09T15:39:48;12.30;99.90
8676;DHT22;4375;52.486;13.424;2023-04-09T15:42:14;12.30;99.90
8676;DHT22;4375;52.486;13.424;2023-04-09T15:44:45;12.30;99.90
8676;DHT22;4375;52.486;13.424;2023-04-09T15:47:10;12.30;99.90
8676;DHT22;4375;52.486;13.424;2023-04-09T15:49:36;12.20;99.90
8676;DHT22;4375;52.486;13.424;2023-04-09T15:52:01;12.20;99.90
8676;DHT22;4375;52.486;13.424;2023-04-09T15:54:27;12.20;99.90
8676;DHT22;4375;52.486;13.424;2023-04-09T15:56:53;12.20;99.90
8676;DHT22;4375;52.486;13.424;2023-04-09T15:59:18;12.20;99.90
8676;DHT22;4375;52.486;13.424;2023-04-09T16:01:44;12.10;99.90
8676;DHT22;4375;52.486;13.424;2023-04-09T16:04:10;12.10;99.90
8676;DHT22;4375;52.486;13.424;2023-04-09T16:06:37;12.10;99.90
8676;DHT22;4375;52.486;13.424;2023-04-09T16:09:03;12.10;99.90